Time;durP1;ratioP1;P1;durP2;ratioP2;P2;SDS_P1;SDS_P2;PMS_P1;PMS_P2;Temp;Humidity;BMP_temperature;BMP_pressure;BME280_temperature;BME280_humidity;BME280_pressure;Samples;Min_cycle;Max_cycle;Signal;HPM_P1;HPM_P2
2022/04/09 00:01:56;;;;;;;;;;;;;;;4.44;71.44;98425.94;4915957;29;19919;-82
2022/04/09 00:04:21;;;;;;;;;;;;;;;4.46;71.44;98423.25;4914344;29;19930;-83
2022/04/09 00:06:47;;;;;;;;;;;;;;;4.48;71.51;98438.03;4915857;29;19919;-82
2022/04/09 00:09:12;;;;;;;;;;;;;;;4.51;71.55;98444.91;4915437;29;19931;-80
2022/04/09 00:11:37;;;;;;;;;;;;;;;4.51;71.53;98453.59;4914468;29;20022;-81
2022/04/09 00:14:03;;;;;;;;;;;;;;;4.51;71.41;98458.84;4914133;29;20402;-80
2022/04/09 00:16:28;;;;;;;;;;;;;;;4.52;71.39;98454.47;4912775;29;19919;-81
2022/04/09 00:18:53;;;;;;;;;;;;;;;4.52;71.30;98463.19;4914551;29;19927;-81
2022/04/09 00:21:18;;;;;;;;;;;;;;;4.57;71.49;98459.56;4915585;29;19919;-81
2022/04/09 00:23:44;;;;;;;;;;;;;;;4.57;71.51;98472.66;4914950;29;20058;-81
2022/04/09 00:26:09;;;;;;;;;;;;;;;4.56;71.31;98487.53;4914190;29;20315;-81
2022/04/09 00:28:34;;;;;;;;;;;;;;;5.34;73.87;98485.28;4915188;29;19923;-79
2022/04/09 00:30:59;;;;;;;;;;;;;;;4.98;73.96;98491.13;4913193;29;19915;-82
2022/04/09 00:33:25;;;;;;;;;;;;;;;4.80;73.99;98498.81;4913941;29;19926;-83
2022/04/09 00:35:50;;;;;;;;;;;;;;;4.78;73.87;98505.91;4915222;29;19929;-81
2022/04/09 00:38:15;;;;;;;;;;;;;;;4.75;73.50;98505.19;4915594;29;19971;-82
2022/04/09 00:40:40;;;;;;;;;;;;;;;4.71;72.95;98515.81;4914266;29;20371;-82
2022/04/09 00:43:05;;;;;;;;;;;;;;;4.70;72.96;98523.75;4913816;29;19941;-81
2022/04/09 00:45:31;;;;;;;;;;;;;;;4.68;72.94;98525.56;4914045;29;19927;-81
2022/04/09 00:47:56;;;;;;;;;;;;;;;4.72;72.93;98532.41;4915308;29;19919;-81
2022/04/09 00:50:21;;;;;;;;;;;;;;;4.71;72.77;98541.22;4914338;29;19919;-83
2022/04/09 00:52:48;;;;;;;;;;;;;;;4.84;73.58;98542.44;4915480;29;20272;-82
2022/04/09 00:55:14;;;;;;;;;;;;;;;4.95;75.00;98541.16;4915189;29;20017;-81
2022/04/09 00:57:40;;;;;;;;;;;;;;;5.02;76.58;98550.50;4929834;29;20013;-81
2022/04/09 01:00:09;;;;;;;;;;;;;;;5.05;77.88;98556.47;4917918;29;19948;-81
2022/04/09 01:02:44;;;;;;;;;;;;;;;5.04;79.05;98570.53;4933170;29;19927;-82
2022/04/09 01:05:10;;;;;;;;;;;;;;;5.00;80.05;98584.69;4919050;29;20326;-81
2022/04/09 01:07:35;;;;;;;;;;;;;;;4.98;80.66;98596.16;4918438;29;19923;-82
2022/04/09 01:10:02;;;;;;;;;;;;;;;4.99;82.07;98596.09;4917858;29;19927;-81
2022/04/09 01:12:27;;;;;;;;;;;;;;;4.98;84.60;98607.53;4919208;29;19927;-82
2022/04/09 03:27:10;;;;;;;;;;;;;;;6.25;100.00;98918.88;5401059;23;20010;-78
2022/04/09 03:29:36;;;;;;;;;;;;;;;6.27;100.00;98922.31;4933125;29;20445;-78
2022/04/09 03:32:01;;;;;;;;;;;;;;;6.28;100.00;98921.38;4933983;29;19923;-79
2022/04/09 03:34:27;;;;;;;;;;;;;;;6.30;100.00;98926.59;4935927;29;19926;-79
2022/04/09 03:36:52;;;;;;;;;;;;;;;6.31;100.00;98934.41;4935696;29;19919;-79
2022/04/09 03:39:17;;;;;;;;;;;;;;;6.32;100.00;98938.78;4935554;29;19929;-79
2022/04/09 03:41:43;;;;;;;;;;;;;;;6.33;100.00;98937.88;4933190;29;19951;-80
2022/04/09 03:44:08;;;;;;;;;;;;;;;6.33;100.00;98947.53;4935494;29;19927;-79
2022/04/09 03:46:33;;;;;;;;;;;;;;;6.35;100.00;98950.94;4934407;29;19947;-78
2022/04/09 03:48:58;;;;;;;;;;;;;;;6.35;100.00;98951.81;4935568;29;19919;-78
2022/04/09 03:51:24;;;;;;;;;;;;;;;6.36;100.00;98953.50;4935561;29;20352;-80
2022/04/09 03:53:49;;;;;;;;;;;;;;;6.38;100.00;98955.25;4935438;29;20009;-78
2022/04/09 03:56:14;;;;;;;;;;;;;;;6.31;100.00;98954.63;4932851;29;19919;-80
2022/04/09 03:58:40;;;;;;;;;;;;;;;5.41;100.00;98962.28;4935497;29;20021;-78
2022/04/09 04:01:05;;;;;;;;;;;;;;;4.98;100.00;98955.81;4935303;29;20330;-78
2022/04/09 04:03:31;;;;;;;;;;;;;;;4.84;100.00;98965.03;4935335;29;19953;-78
2022/04/09 04:05:56;;;;;;;;;;;;;;;4.72;100.00;98979.41;4934008;29;20363;-78
2022/04/09 04:08:21;;;;;;;;;;;;;;;4.66;100.00;98982.22;4935030;29;19923;-79
2022/04/09 04:10:47;;;;;;;;;;;;;;;4.57;100.00;98993.00;4930082;29;20384;-78
2022/04/09 04:13:13;;;;;;;;;;;;;;;4.51;100.00;98996.66;4935071;29;20294;-79
2022/04/09 04:15:38;;;;;;;;;;;;;;;4.47;100.00;99005.56;4935190;29;19922;-80
2022/04/09 04:18:03;;;;;;;;;;;;;;;4.41;100.00;99015.38;4934869;29;19919;-80
2022/04/09 04:20:29;;;;;;;;;;;;;;;4.39;100.00;99025.03;4935185;29;19930;-80
2022/04/09 04:22:54;;;;;;;;;;;;;;;4.36;100.00;99026.00;4934785;29;20323;-80
2022/04/09 04:25:20;;;;;;;;;;;;;;;4.30;100.00;99034.06;4933653;29;19934;-79
2022/04/09 04:27:46;;;;;;;;;;;;;;;4.29;100.00;99032.31;4932225;29;20341;-81
2022/04/09 04:30:12;;;;;;;;;;;;;;;4.49;100.00;99040.47;4934992;29;19923;-80
2022/04/09 04:32:37;;;;;;;;;;;;;;;4.50;100.00;99051.81;4934106;29;20179;-81
2022/04/09 04:35:03;;;;;;;;;;;;;;;4.45;100.00;99051.97;4934969;29;20005;-81
2022/04/09 04:37:35;;;;;;;;;;;;;;;4.41;100.00;99052.09;4934781;29;20492;-81
2022/04/09 04:40:01;;;;;;;;;;;;;;;4.34;100.00;99057.53;4934578;29;20061;-81
2022/04/09 04:42:26;;;;;;;;;;;;;;;4.30;100.00;99062.91;4933123;29;20025;-80
2022/04/09 04:44:51;;;;;;;;;;;;;;;4.24;100.00;99063.06;4933416;29;19919;-80
2022/04/09 04:47:17;;;;;;;;;;;;;;;4.17;100.00;99059.78;4933275;29;19974;-80
2022/04/09 04:49:42;;;;;;;;;;;;;;;4.15;100.00;99062.44;4934789;29;20293;-80
2022/04/09 04:52:07;;;;;;;;;;;;;;;4.12;100.00;99057.28;4934546;29;19923;-80
2022/04/09 04:54:32;;;;;;;;;;;;;;;4.08;100.00;99068.72;4934570;29;19918;-80
2022/04/09 04:56:58;;;;;;;;;;;;;;;4.09;100.00;99080.09;4933258;29;19918;-79
2022/04/09 04:59:23;;;;;;;;;;;;;;;4.03;100.00;99082.88;4934486;29;19921;-81
2022/04/09 05:01:48;;;;;;;;;;;;;;;4.00;100.00;99089.06;4934708;29;19919;-82
2022/04/09 05:04:13;;;;;;;;;;;;;;;3.99;100.00;99092.59;4934589;29;19970;-81
2022/04/09 05:06:39;;;;;;;;;;;;;;;3.95;99.93;99089.19;4934646;29;20346;-81
2022/04/09 07:59:15;;;;;;;;;;;;;;;3.32;85.93;99338.72;4967140;23;19934;-79
2022/04/09 08:01:41;;;;;;;;;;;;;;;3.31;85.80;99340.50;4935401;29;19922;-80
2022/04/09 08:04:06;;;;;;;;;;;;;;;3.24;85.63;99338.91;4933893;29;19918;-81
2022/04/09 08:06:32;;;;;;;;;;;;;;;3.28;85.70;99340.53;4934050;29;19945;-80
2022/04/09 08:08:57;;;;;;;;;;;;;;;3.27;85.66;99347.56;4933074;29;19952;-79
2022/04/09 08:11:22;;;;;;;;;;;;;;;3.30;85.67;99344.00;4933050;29;19983;-79
2022/04/09 08:13:48;;;;;;;;;;;;;;;3.32;85.40;99346.56;4934046;29;19931;-80
2022/04/09 08:16:13;;;;;;;;;;;;;;;3.31;85.27;99345.72;4933821;29;20021;-80
2022/04/09 08:18:39;;;;;;;;;;;;;;;3.30;85.04;99358.84;4931656;29;20017;-79
2022/04/09 08:21:05;;;;;;;;;;;;;;;3.35;85.04;99363.13;4931906;29;19919;-79
2022/04/09 08:23:31;;;;;;;;;;;;;;;3.34;84.91;99360.53;4933598;29;19919;-80
2022/04/09 08:25:57;;;;;;;;;;;;;;;3.33;84.75;99359.63;4934971;29;19993;-79
2022/04/09 08:28:22;;;;;;;;;;;;;;;3.34;84.56;99365.75;4933712;29;20394;-80
2022/04/09 08:30:48;;;;;;;;;;;;;;;3.32;84.46;99352.69;4933698;29;20009;-80
2022/04/09 08:33:15;;;;;;;;;;;;;;;3.31;84.19;99365.81;4934437;29;19965;-79
2022/04/09 08:35:41;;;;;;;;;;;;;;;3.30;83.95;99370.19;4934837;29;20301;-79
2022/04/09 08:38:06;;;;;;;;;;;;;;;3.32;84.00;99367.53;4928941;29;20405;-79
2022/04/09 08:40:32;;;;;;;;;;;;;;;3.29;83.90;99376.31;4933412;29;20005;-79
2022/04/09 08:42:58;;;;;;;;;;;;;;;3.32;84.02;99373.66;4930352;29;20409;-79
2022/04/09 08:45:23;;;;;;;;;;;;;;;3.30;83.95;99374.56;4933190;29;19919;-80
2022/04/09 08:47:50;;;;;;;;;;;;;;;3.30;83.79;99374.56;4933280;29;20026;-79
2022/04/09 08:50:17;;;;;;;;;;;;;;;3.29;83.99;99381.56;4933857;29;19919;-82
2022/04/09 08:52:44;;;;;;;;;;;;;;;3.33;83.77;99372.75;4933310;29;19921;-82
2022/04/09 08:55:12;;;;;;;;;;;;;;;3.27;83.29;99370.25;4934716;29;19923;-80
2022/04/09 08:57:38;;;;;;;;;;;;;;;3.28;83.08;99375.44;4932917;29;20017;-79
2022/04/09 09:00:07;;;;;;;;;;;;;;;3.28;82.79;99377.22;4934394;29;20338;-79
2022/04/09 09:02:35;;;;;;;;;;;;;;;3.31;82.87;99378.91;4932061;29;19922;-80
2022/04/09 09:05:00;;;;;;;;;;;;;;;3.30;82.74;99385.88;4932757;29;19923;-81
2022/04/09 09:07:25;;;;;;;;;;;;;;;3.32;82.70;99381.50;4933038;29;19925;-81
2022/04/09 09:09:51;;;;;;;;;;;;;;;3.34;82.71;99382.34;4933169;29;19919;-80
2022/04/09 09:12:29;;;;;;;;;;;;;;;3.32;82.57;99386.75;4933128;29;19919;-80
2022/04/09 09:14:55;;;;;;;;;;;;;;;3.34;82.44;99390.19;4933178;29;19930;-81
2022/04/09 09:17:30;;;;;;;;;;;;;;;3.31;81.99;99398.09;4934309;29;19923;-80
2022/04/09 09:19:56;;;;;;;;;;;;;;;3.35;82.09;99398.91;4935248;29;19941;-82
2022/04/09 09:22:21;;;;;;;;;;;;;;;3.37;82.12;99403.22;4936782;29;19919;-79
2022/04/09 09:25:07;;;;;;;;;;;;;;;3.35;82.14;99398.91;4936899;29;19929;-82
2022/04/09 09:27:32;;;;;;;;;;;;;;;3.36;81.84;99401.50;4934478;29;20314;-78
2022/04/09 09:29:57;;;;;;;;;;;;;;;3.32;81.44;99401.56;4938088;29;19970;-80
2022/04/09 09:32:24;;;;;;;;;;;;;;;3.32;81.08;99402.47;4934571;29;19915;-78
2022/04/09 09:34:54;;;;;;;;;;;;;;;3.37;81.33;99398.00;4937434;29;19919;-82
2022/04/09 09:37:28;;;;;;;;;;;;;;;3.32;80.80;99398.97;4937296;29;20015;-81
2022/04/09 09:39:53;;;;;;;;;;;;;;;3.31;80.53;99405.97;4937563;29;20346;-79
2022/04/09 09:42:19;;;;;;;;;;;;;;;3.35;80.84;99401.53;4935213;29;19919;-80
2022/04/09 09:44:44;;;;;;;;;;;;;;;3.31;80.47;99403.34;4937929;29;19919;-79
2022/04/09 09:47:12;;;;;;;;;;;;;;;3.33;80.35;99414.63;4937847;29;20382;-79
2022/04/09 09:50:19;;;;;;;;;;;;;;;3.36;80.46;99409.34;4936418;29;20373;-79
2022/04/09 09:52:38;;;;;;;;;;;;;;;3.37;80.29;99411.09;4935428;29;19923;-79
2022/04/09 09:55:06;;;;;;;;;;;;;;;3.38;80.17;99415.44;4936477;29;19930;-81
2022/04/09 09:57:33;;;;;;;;;;;;;;;3.40;80.15;99412.78;4935479;29;19919;-79
2022/04/09 09:59:59;;;;;;;;;;;;;;;3.42;80.20;99413.63;4937407;29;19923;-82
2022/04/09 10:02:25;;;;;;;;;;;;;;;3.44;80.58;99417.91;4937483;29;20013;-81
2022/04/09 10:04:53;;;;;;;;;;;;;;;3.45;80.40;99418.78;4936194;29;20141;-79
2022/04/09 10:07:18;;;;;;;;;;;;;;;3.43;80.19;99420.56;4937078;29;20103;-81
2022/04/09 10:09:44;;;;;;;;;;;;;;;3.42;80.20;99417.09;4937577;29;20370;-81
2022/04/09 10:12:14;;;;;;;;;;;;;;;3.43;79.92;99417.94;4934991;29;19926;-80
2022/04/09 10:14:39;;;;;;;;;;;;;;;3.43;79.52;99416.22;4937188;29;19973;-80
2022/04/09 10:17:06;;;;;;;;;;;;;;;3.42;79.27;99424.94;4937622;29;19965;-79
2022/04/09 10:19:32;;;;;;;;;;;;;;;3.43;79.29;99423.19;4937004;29;20289;-79
2022/04/09 10:21:58;;;;;;;;;;;;;;;3.44;79.12;99433.63;4937179;29;19923;-80
2022/04/09 10:24:26;;;;;;;;;;;;;;;3.44;79.34;99423.16;4936366;29;20370;-80
2022/04/09 10:26:56;;;;;;;;;;;;;;;3.45;79.06;99424.03;4934938;29;19923;-78
2022/04/09 10:29:21;;;;;;;;;;;;;;;3.47;79.02;99418.78;4935741;29;19973;-81
2022/04/09 10:31:51;;;;;;;;;;;;;;;3.48;78.89;99423.97;4935920;29;19923;-79
2022/04/09 10:34:17;;;;;;;;;;;;;;;3.48;78.74;99425.72;4936449;29;19923;-81
2022/04/09 10:36:42;;;;;;;;;;;;;;;3.51;78.77;99425.66;4936833;29;19922;-82
2022/04/09 10:39:21;;;;;;;;;;;;;;;3.52;78.68;99432.63;4935729;29;19918;-82
2022/04/09 10:41:46;;;;;;;;;;;;;;;3.52;78.52;99437.88;4936619;29;20465;-80
2022/04/09 10:44:31;;;;;;;;;;;;;;;3.54;78.45;99436.06;4935855;29;19919;-82
2022/04/09 10:46:59;;;;;;;;;;;;;;;3.55;78.56;99433.44;4935207;29;19922;-80
2022/04/09 10:49:26;;;;;;;;;;;;;;;3.57;79.04;99436.88;4936817;29;19919;-79
2022/04/09 10:52:05;;;;;;;;;;;;;;;3.55;78.79;99441.28;4935384;29;19915;-82
2022/04/09 10:54:31;;;;;;;;;;;;;;;3.60;78.39;99452.53;4936400;29;19918;-79
2022/04/09 10:57:05;;;;;;;;;;;;;;;3.60;78.26;99451.69;4934023;29;19919;-81
2022/04/09 10:59:31;;;;;;;;;;;;;;;3.64;77.84;99456.84;4936180;29;19962;-81
2022/04/09 11:01:56;;;;;;;;;;;;;;;3.61;77.66;99443.78;4935394;29;19993;-80
2022/04/09 11:04:36;;;;;;;;;;;;;;;3.64;77.61;99437.63;4936525;29;20397;-80
2022/04/09 11:07:05;;;;;;;;;;;;;;;3.60;77.54;99438.56;4935461;29;19934;-79
2022/04/09 11:09:43;;;;;;;;;;;;;;;3.60;77.27;99434.19;4936161;29;20367;-80
2022/04/09 11:12:08;;;;;;;;;;;;;;;3.63;77.17;99425.41;4933730;29;20284;-81
2022/04/09 11:14:50;;;;;;;;;;;;;;;3.63;77.01;99435.91;4932681;29;19950;-81
2022/04/09 11:17:16;;;;;;;;;;;;;;;3.68;76.84;99441.91;4935971;29;19966;-80
2022/04/09 11:19:42;;;;;;;;;;;;;;;3.70;77.21;99432.28;4935931;29;20129;-80
2022/04/09 11:22:08;;;;;;;;;;;;;;;3.69;77.41;99425.28;4935178;29;19929;-79
2022/04/09 11:24:37;;;;;;;;;;;;;;;3.65;76.93;99428.84;4934592;29;19922;-80
2022/04/09 11:27:03;;;;;;;;;;;;;;;3.68;76.92;99427.94;4934621;29;19923;-79
2022/04/09 11:29:35;;;;;;;;;;;;;;;3.68;76.57;99433.19;4935858;29;19925;-80
2022/04/09 11:32:00;;;;;;;;;;;;;;;3.74;76.82;99431.31;4935448;29;19962;-80
2022/04/09 11:34:27;;;;;;;;;;;;;;;3.73;76.76;99440.03;4935573;29;19985;-81
2022/04/09 11:37:08;;;;;;;;;;;;;;;3.72;76.71;99440.97;4935602;29;19919;-81
2022/04/09 11:39:37;;;;;;;;;;;;;;;3.75;76.55;99440.00;4935690;29;19978;-82
2022/04/09 11:42:02;;;;;;;;;;;;;;;3.74;76.02;99431.31;4933707;29;19927;-81
2022/04/09 11:44:28;;;;;;;;;;;;;;;3.74;75.88;99428.69;4935677;29;19965;-81
2022/04/09 11:46:53;;;;;;;;;;;;;;;3.75;75.96;99432.16;4935785;29;19919;-82
2022/04/09 11:49:19;;;;;;;;;;;;;;;3.77;75.73;99433.00;4935597;29;20297;-82
2022/04/09 11:51:56;;;;;;;;;;;;;;;3.81;75.77;99437.28;4934128;29;20310;-81
2022/04/09 11:54:21;;;;;;;;;;;;;;;3.81;75.79;99434.66;4934877;29;19930;-80
2022/04/09 11:56:46;;;;;;;;;;;;;;;3.84;75.65;99438.97;4934022;29;19923;-80
2022/04/09 11:59:13;;;;;;;;;;;;;;;3.80;75.52;99439.03;4934234;29;20330;-79
2022/04/09 12:01:38;;;;;;;;;;;;;;;3.82;75.74;99436.38;4935222;29;20399;-81
2022/04/09 12:04:04;;;;;;;;;;;;;;;3.84;75.91;99429.34;4933985;29;20013;-80
2022/04/09 12:06:29;;;;;;;;;;;;;;;3.87;75.84;99428.44;4935167;29;20009;-82
2022/04/09 12:08:55;;;;;;;;;;;;;;;3.85;75.34;99435.47;4935208;29;19922;-79
2022/04/09 12:11:20;;;;;;;;;;;;;;;3.85;74.91;99436.31;4934338;29;19919;-80
2022/04/09 12:13:46;;;;;;;;;;;;;;;3.86;74.97;99430.19;4932457;29;19923;-80
2022/04/09 12:16:19;;;;;;;;;;;;;;;3.90;74.77;99433.59;4934018;29;19918;-81
2022/04/09 12:18:44;;;;;;;;;;;;;;;3.91;74.82;99435.31;4934503;29;19946;-79
2022/04/09 12:21:20;;;;;;;;;;;;;;;3.91;74.81;99430.06;4935091;29;20025;-82
2022/04/09 12:23:46;;;;;;;;;;;;;;;3.94;74.80;99433.50;4919840;29;20425;-81
2022/04/09 12:26:25;;;;;;;;;;;;;;;3.95;74.57;99435.22;4933574;29;20013;-83
2022/04/09 12:29:08;;;;;;;;;;;;;;;3.95;74.75;99422.13;4929930;29;19918;-80
2022/04/09 12:31:34;;;;;;;;;;;;;;;3.99;74.51;99428.19;4934993;29;20449;-80
2022/04/09 12:34:00;;;;;;;;;;;;;;;3.97;74.25;99425.59;4934633;29;19919;-82
2022/04/09 12:36:25;;;;;;;;;;;;;;;4.00;74.18;99424.63;4934985;29;19923;-79
2022/04/09 12:38:51;;;;;;;;;;;;;;;4.02;74.46;99424.59;4934784;29;19962;-80
2022/04/09 12:41:16;;;;;;;;;;;;;;;4.05;74.40;99432.41;4934873;29;20394;-79
2022/04/09 12:43:42;;;;;;;;;;;;;;;4.04;74.42;99430.66;4933299;29;19973;-82
2022/04/09 12:46:12;;;;;;;;;;;;;;;4.06;74.15;99429.75;4934719;29;19923;-79
2022/04/09 12:48:47;;;;;;;;;;;;;;;4.07;74.02;99439.34;4934305;29;20306;-82
2022/04/09 12:51:14;;;;;;;;;;;;;;;4.27;75.70;99446.75;4934624;29;19973;-81
2022/04/09 12:53:40;;;;;;;;;;;;;;;4.41;77.72;99445.59;4933814;29;19930;-79
2022/04/09 12:56:09;;;;;;;;;;;;;;;4.45;79.61;99447.25;4934561;29;19918;-79
2022/04/09 12:58:35;;;;;;;;;;;;;;;4.42;81.19;99437.69;4930338;29;19931;-80
2022/04/09 13:01:00;;;;;;;;;;;;;;;4.35;82.40;99423.84;4933274;29;19919;-79
2022/04/09 13:03:26;;;;;;;;;;;;;;;4.32;83.60;99431.81;4934590;29;19926;-79
2022/04/09 13:05:51;;;;;;;;;;;;;;;4.28;84.38;99424.91;4934312;29;19930;-80
2022/04/09 13:08:17;;;;;;;;;;;;;;;4.25;85.25;99424.09;4932591;29;20512;-79
2022/04/09 13:10:42;;;;;;;;;;;;;;;4.11;86.24;99430.50;4934366;29;19934;-80
2022/04/09 13:13:07;;;;;;;;;;;;;;;4.06;87.39;99432.38;4933316;29;19922;-79
2022/04/09 13:15:32;;;;;;;;;;;;;;;4.09;89.37;99434.94;4934395;29;19919;-79
2022/04/09 13:17:58;;;;;;;;;;;;;;;4.26;91.83;99425.81;4933133;29;20382;-78
2022/04/09 13:20:23;;;;;;;;;;;;;;;4.49;95.37;99428.78;4934218;29;19934;-80
2022/04/09 13:22:48;;;;;;;;;;;;;;;4.66;98.47;99420.50;4930572;29;20017;-79
2022/04/09 13:25:15;;;;;;;;;;;;;;;4.85;100.00;99420.91;4933232;29;19969;-78
2022/04/09 13:27:44;;;;;;;;;;;;;;;5.00;100.00;99424.03;4932919;29;20025;-82
2022/04/09 13:30:09;;;;;;;;;;;;;;;5.08;100.00;99417.66;4932583;29;19982;-81
2022/04/09 13:32:35;;;;;;;;;;;;;;;5.17;100.00;99426.22;4933998;29;19919;-83
2022/04/09 13:35:00;;;;;;;;;;;;;;;5.22;100.00;99419.94;4934199;29;19918;-79
2022/04/09 13:37:25;;;;;;;;;;;;;;;5.31;100.00;99423.22;4933012;29;19941;-79
2022/04/09 13:39:50;;;;;;;;;;;;;;;5.33;100.00;99416.16;4934120;29;19942;-78
2022/04/09 13:42:16;;;;;;;;;;;;;;;5.38;100.00;99401.16;4932897;29;19986;-78
2022/04/09 13:44:43;;;;;;;;;;;;;;;5.44;100.00;99408.84;4932848;29;19962;-79
2022/04/09 13:47:10;;;;;;;;;;;;;;;5.50;100.00;99408.66;4933534;29;20433;-80
2022/04/09 13:49:35;;;;;;;;;;;;;;;5.53;100.00;99399.84;4932851;29;19918;-79
2022/04/09 13:52:01;;;;;;;;;;;;;;;5.55;100.00;99392.78;4930640;29;19923;-79
2022/04/09 13:54:27;;;;;;;;;;;;;;;5.61;100.00;99398.69;4933891;29;19957;-79
2022/04/09 13:56:52;;;;;;;;;;;;;;;5.64;100.00;99401.25;4932007;29;19987;-79
2022/04/09 13:59:18;;;;;;;;;;;;;;;5.66;100.00;99392.47;4932191;29;19923;-80
2022/04/09 14:01:43;;;;;;;;;;;;;;;5.68;100.00;99385.38;4934091;29;20565;-79
2022/04/09 14:04:08;;;;;;;;;;;;;;;5.74;100.00;99388.69;4934391;29;20005;-78
2022/04/09 14:06:34;;;;;;;;;;;;;;;5.75;100.00;99387.78;4936630;29;20298;-79
2022/04/09 14:09:00;;;;;;;;;;;;;;;5.79;100.00;99383.31;4935209;29;20260;-77
2022/04/09 14:11:25;;;;;;;;;;;;;;;5.81;100.00;99376.25;4937356;29;19914;-78
2022/04/09 14:13:50;;;;;;;;;;;;;;;5.84;100.00;99384.06;4936082;29;20469;-79
2022/04/09 14:16:16;;;;;;;;;;;;;;;5.88;100.00;99376.94;4936095;29;19918;-82
2022/04/09 14:18:41;;;;;;;;;;;;;;;5.87;100.00;99381.34;4931204;29;20330;-79
2022/04/09 14:21:06;;;;;;;;;;;;;;;5.90;100.00;99380.34;4933788;29;19923;-79
2022/04/09 14:23:32;;;;;;;;;;;;;;;5.93;100.00;99375.84;4935974;29;19942;-79
2022/04/09 14:25:58;;;;;;;;;;;;;;;5.96;100.00;99374.91;4935057;29;19951;-79
2022/04/09 14:28:26;;;;;;;;;;;;;;;5.22;100.00;99383.16;4934492;29;19923;-79
2022/04/09 14:30:52;;;;;;;;;;;;;;;4.71;100.00;99391.53;4936276;29;19918;-79
2022/04/09 14:33:20;;;;;;;;;;;;;;;4.58;100.00;99387.47;4935696;29;20025;-79
2022/04/09 14:35:45;;;;;;;;;;;;;;;4.47;100.00;99380.72;4936905;29;20319;-80
2022/04/09 14:38:10;;;;;;;;;;;;;;;4.39;100.00;99382.69;4936903;29;19918;-82
2022/04/09 14:40:36;;;;;;;;;;;;;;;4.32;100.00;99388.94;4935489;29;20278;-79
2022/04/09 14:43:02;;;;;;;;;;;;;;;4.26;100.00;99386.47;4933364;29;20042;-79
2022/04/09 14:45:27;;;;;;;;;;;;;;;4.25;100.00;99385.63;4936645;29;19926;-79
2022/04/09 14:47:52;;;;;;;;;;;;;;;4.22;100.00;99376.97;4935392;29;19923;-81
2022/04/09 14:50:18;;;;;;;;;;;;;;;4.17;100.00;99385.78;4936621;29;19950;-79
2022/04/09 14:52:43;;;;;;;;;;;;;;;4.13;99.28;99394.66;4932291;29;19919;-82
2022/04/09 14:55:12;;;;;;;;;;;;;;;4.11;98.64;99396.41;4936469;29;19926;-80
2022/04/09 14:57:37;;;;;;;;;;;;;;;4.09;97.89;99398.22;4935214;29;20066;-79
2022/04/09 15:00:04;;;;;;;;;;;;;;;4.07;97.23;99392.16;4936274;29;20017;-80
2022/04/09 15:02:30;;;;;;;;;;;;;;;4.07;96.25;99399.13;4936288;29;19926;-83
2022/04/09 15:04:55;;;;;;;;;;;;;;;4.03;95.55;99411.47;4935033;29;19923;-82
2022/04/09 15:07:21;;;;;;;;;;;;;;;3.95;94.61;99421.25;4935956;29;19926;-81
2022/04/09 15:09:47;;;;;;;;;;;;;;;3.97;94.27;99428.22;4934302;29;20644;-79
2022/04/09 15:12:12;;;;;;;;;;;;;;;3.96;93.63;99428.25;4928072;29;19930;-79
2022/04/09 15:14:38;;;;;;;;;;;;;;;3.92;93.04;99437.06;4932260;29;19953;-80
2022/04/09 15:17:03;;;;;;;;;;;;;;;3.87;92.60;99446.78;4934597;29;19922;-80
2022/04/09 15:19:29;;;;;;;;;;;;;;;3.80;91.98;99441.66;4932938;29;19923;-79
2022/04/09 15:21:54;;;;;;;;;;;;;;;3.78;91.62;99446.06;4934497;29;20299;-79
2022/04/09 15:24:19;;;;;;;;;;;;;;;3.75;91.43;99455.75;4933458;29;19934;-82
2022/04/09 15:26:44;;;;;;;;;;;;;;;3.75;90.98;99468.84;4935441;29;19962;-80
2022/04/09 15:29:11;;;;;;;;;;;;;;;3.75;90.90;99467.09;4934111;29;20378;-81
2022/04/09 15:31:36;;;;;;;;;;;;;;;3.67;90.35;99465.50;4935536;29;19919;-81
2022/04/09 15:34:02;;;;;;;;;;;;;;;3.66;90.32;99467.28;4935578;29;19925;-82
2022/04/09 15:36:27;;;;;;;;;;;;;;;3.60;89.94;99462.16;4934592;29;20018;-82
2022/04/09 15:38:52;;;;;;;;;;;;;;;3.59;89.64;99465.66;4934945;29;20322;-82
2022/04/09 15:41:18;;;;;;;;;;;;;;;3.57;89.72;99470.06;4935372;29;20334;-82
2022/04/09 15:43:43;;;;;;;;;;;;;;;3.57;89.65;99467.44;4933204;29;19923;-82
2022/04/09 15:46:08;;;;;;;;;;;;;;;3.60;89.61;99467.41;4935794;29;19954;-79
2022/04/09 15:48:35;;;;;;;;;;;;;;;3.54;89.50;99465.78;4933364;29;19923;-79
2022/04/09 15:51:00;;;;;;;;;;;;;;;3.53;89.35;99471.03;4934756;29;19926;-79
2022/04/09 15:53:25;;;;;;;;;;;;;;;3.53;89.18;99466.66;4933860;29;19982;-81
2022/04/09 15:55:51;;;;;;;;;;;;;;;3.55;89.18;99459.63;4935323;29;19926;-82
2022/04/09 15:58:16;;;;;;;;;;;;;;;3.49;89.02;99458.88;4934373;29;20294;-80
2022/04/09 16:00:41;;;;;;;;;;;;;;;3.50;89.09;99452.75;4934741;29;19926;-80
2022/04/09 16:03:06;;;;;;;;;;;;;;;3.50;89.42;99453.63;4950245;28;19927;-81
2022/04/09 16:05:32;;;;;;;;;;;;;;;3.48;89.55;99451.91;4934972;29;20426;-80
2022/04/09 16:07:57;;;;;;;;;;;;;;;3.48;89.35;99444.06;4933521;29;19923;-79
2022/04/09 16:10:22;;;;;;;;;;;;;;;3.49;89.11;99448.41;4933247;29;19919;-78
2022/04/09 16:12:48;;;;;;;;;;;;;;;3.48;89.06;99459.75;4934136;29;19919;-82
2022/04/09 16:15:16;;;;;;;;;;;;;;;3.44;88.88;99441.50;4935093;29;20514;-82
2022/04/09 16:17:41;;;;;;;;;;;;;;;3.48;89.11;99457.16;4934640;29;20297;-79
2022/04/09 16:20:07;;;;;;;;;;;;;;;3.51;89.01;99452.72;4934949;29;19942;-82
2022/04/09 16:22:32;;;;;;;;;;;;;;;3.48;88.77;99444.06;4933792;29;19922;-79
2022/04/09 16:25:00;;;;;;;;;;;;;;;3.43;88.72;99460.75;4934972;29;20009;-80
2022/04/09 16:27:25;;;;;;;;;;;;;;;3.45;88.69;99456.31;4933680;29;20393;-78
2022/04/09 16:29:50;;;;;;;;;;;;;;;3.44;88.45;99464.22;4934949;29;19922;-81
2022/04/09 16:32:16;;;;;;;;;;;;;;;3.41;88.60;99466.88;4933502;29;20010;-81
2022/04/09 16:34:43;;;;;;;;;;;;;;;3.41;88.62;99467.75;4934901;29;19974;-82
2022/04/09 16:37:08;;;;;;;;;;;;;;;3.42;88.89;99458.16;4934636;29;19945;-81
2022/04/09 16:39:33;;;;;;;;;;;;;;;3.44;89.08;99467.69;4934768;29;20426;-79
2022/04/09 16:41:58;;;;;;;;;;;;;;;3.43;89.17;99468.59;4932902;29;20434;-79
2022/04/09 16:44:25;;;;;;;;;;;;;;;3.45;88.99;99469.41;4932675;29;19926;-80
2022/04/09 16:46:50;;;;;;;;;;;;;;;3.37;88.58;99468.69;4931897;29;20577;-79
2022/04/09 16:49:16;;;;;;;;;;;;;;;3.41;88.48;99469.50;4933531;29;19922;-81
2022/04/09 16:51:41;;;;;;;;;;;;;;;3.39;88.60;99474.78;4934619;29;19918;-79
2022/04/09 16:54:06;;;;;;;;;;;;;;;3.38;88.31;99478.31;4933098;29;20162;-79
2022/04/09 16:56:31;;;;;;;;;;;;;;;3.39;88.14;99473.91;4928356;29;19925;-79
2022/04/09 16:58:57;;;;;;;;;;;;;;;3.37;88.04;99481.81;4931997;29;20434;-80
2022/04/09 17:01:22;;;;;;;;;;;;;;;3.37;87.68;99476.56;4933330;29;20263;-84
2022/04/09 17:03:48;;;;;;;;;;;;;;;3.36;87.62;99480.06;4933236;29;19919;-81
2022/04/09 17:06:13;;;;;;;;;;;;;;;3.40;87.54;99492.22;4934497;29;19919;-82
2022/04/09 17:08:38;;;;;;;;;;;;;;;3.35;87.41;99483.59;4934075;29;20009;-79
2022/04/09 17:11:06;;;;;;;;;;;;;;;3.37;87.47;99484.41;4934512;29;19923;-81
2022/04/09 17:13:33;;;;;;;;;;;;;;;3.38;87.30;99499.25;4924347;29;19941;-80
2022/04/09 17:15:58;;;;;;;;;;;;;;;3.39;87.24;99498.34;4934098;29;19923;-82
2022/04/09 17:18:24;;;;;;;;;;;;;;;3.35;87.15;99498.41;4934461;29;19919;-81
2022/04/09 17:20:50;;;;;;;;;;;;;;;3.36;86.98;99502.78;4934121;29;19942;-81
2022/04/09 17:23:15;;;;;;;;;;;;;;;3.33;87.06;99508.91;4932872;29;19999;-80
2022/04/09 17:25:41;;;;;;;;;;;;;;;3.35;87.15;99509.78;4930924;29;20001;-81
2022/04/09 17:28:07;;;;;;;;;;;;;;;3.35;87.14;99515.03;4931793;29;20389;-80
2022/04/09 17:30:33;;;;;;;;;;;;;;;3.37;87.02;99518.47;4928822;29;19919;-81
2022/04/09 17:32:58;;;;;;;;;;;;;;;3.98;87.82;99519.06;4932869;29;19919;-77
2022/04/09 17:35:23;;;;;;;;;;;;;;;5.54;87.53;99515.44;4934155;29;19919;-82
2022/04/09 17:37:49;;;;;;;;;;;;;;;4.40;86.90;99526.03;4930489;29;20311;-81
2022/04/09 17:40:14;;;;;;;;;;;;;;;4.06;87.48;99529.38;4928521;29;19962;-82
2022/04/09 17:42:41;;;;;;;;;;;;;;;3.90;87.46;99522.72;4936284;29;20479;-81
2022/04/09 17:45:06;;;;;;;;;;;;;;;3.82;87.53;99530.75;4937130;29;19974;-81
2022/04/09 17:47:31;;;;;;;;;;;;;;;3.78;87.37;99523.81;4937664;29;19922;-81
2022/04/09 17:49:59;;;;;;;;;;;;;;;3.71;87.46;99530.94;4937944;29;19926;-81
2022/04/09 17:52:24;;;;;;;;;;;;;;;3.70;87.50;99531.84;4936343;29;19943;-81
2022/04/09 17:54:49;;;;;;;;;;;;;;;3.69;87.50;99535.34;4937724;29;19918;-81